Time;durP1;ratioP1;P1;durP2;ratioP2;P2;SDS_P1;SDS_P2;PMS_P1;PMS_P2;Temp;Humidity;BMP_temperature;BMP_pressure;BME280_temperature;BME280_humidity;BME280_pressure;Samples;Min_cycle;Max_cycle;Signal;HPM_P1;HPM_P2
2022/01/20 00:01:59;;;;;;;15.52;2.08;;;4.60;99.90;;;;;;4938380;28;20039;-68
2022/01/20 00:04:34;;;;;;;13.15;1.63;;;4.60;99.90;;;;;;4938088;28;20501;-68
2022/01/20 00:09:51;;;;;;;6.53;1.08;;;4.60;99.90;;;;;;4942949;28;20047;-68
2022/01/20 00:23:41;;;;;;;14.10;1.65;;;4.40;99.90;;;;;;4940768;28;20066;-67
2022/01/20 00:26:09;;;;;;;7.32;1.40;;;4.40;99.90;;;;;;4942060;28;20150;-66
2022/01/20 00:28:46;;;;;;;12.05;1.65;;;4.40;99.90;;;;;;4940116;29;20134;-67
2022/01/20 00:33:56;;;;;;;8.50;1.33;;;4.40;99.90;;;;;;4943019;28;20051;-67
2022/01/20 00:39:06;;;;;;;13.40;2.03;;;4.50;99.90;;;;;;4939716;28;20491;-68
2022/01/20 00:41:32;;;;;;;4.50;1.33;;;4.50;99.90;;;;;;4942400;28;20042;-67
2022/01/20 00:43:58;;;;;;;16.08;1.83;;;4.60;99.90;;;;;;4943219;28;20401;-67
2022/01/20 00:46:24;;;;;;;9.57;1.23;;;4.60;99.90;;;;;;4942496;28;20123;-67
2022/01/20 00:48:49;;;;;;;14.87;2.17;;;4.60;99.90;;;;;;4936743;28;20050;-68
2022/01/20 00:51:15;;;;;;;9.20;2.40;;;4.60;99.90;;;;;;4943935;28;20201;-67
2022/01/20 00:53:44;;;;;;;5.27;0.87;;;4.60;99.90;;;;;;4946971;28;20405;-67
2022/01/20 00:56:13;;;;;;;10.48;0.70;;;4.60;99.90;;;;;;4949101;28;20074;-66
2022/01/20 00:58:40;;;;;;;5.70;0.85;;;4.60;99.90;;;;;;4943325;28;20149;-67
2022/01/20 01:01:05;;;;;;;15.35;1.30;;;4.70;99.90;;;;;;4946997;28;20307;-67
2022/01/20 01:03:31;;;;;;;7.53;0.80;;;4.70;99.90;;;;;;4941227;28;20132;-67
2022/01/20 01:06:33;;;;;;;15.13;1.47;;;4.70;99.90;;;;;;4938266;28;20154;-67
2022/01/20 01:08:59;;;;;;;14.80;1.25;;;4.70;99.90;;;;;;4943239;28;20058;-67
2022/01/20 01:11:25;;;;;;;9.37;0.93;;;4.70;99.90;;;;;;4946696;28;20043;-67
2022/01/20 01:13:52;;;;;;;6.10;0.80;;;4.70;99.90;;;;;;4945700;28;20507;-67
2022/01/20 01:16:21;;;;;;;6.10;0.98;;;4.60;99.90;;;;;;4939742;28;20039;-67
2022/01/20 01:21:43;;;;;;;10.07;1.00;;;4.70;99.90;;;;;;4948566;28;20508;-68
2022/01/20 01:24:09;;;;;;;6.07;0.88;;;4.60;99.90;;;;;;4951934;28;20071;-69
2022/01/20 01:26:35;;;;;;;8.73;0.80;;;4.60;99.90;;;;;;4951926;28;20077;-68
2022/01/20 01:29:05;;;;;;;6.50;1.25;;;4.70;99.90;;;;;;4942146;28;20047;-69
2022/01/20 01:31:37;;;;;;;10.70;1.00;;;4.70;99.90;;;;;;4944593;28;20057;-68
2022/01/20 01:34:06;;;;;;;12.52;1.85;;;4.70;99.90;;;;;;4954769;28;20464;-68
2022/01/20 01:36:46;;;;;;;7.80;1.30;;;4.70;99.90;;;;;;4948882;29;20079;-68
2022/01/20 01:39:12;;;;;;;10.38;1.42;;;4.80;99.90;;;;;;4952372;28;20043;-68
2022/01/20 01:41:39;;;;;;;7.97;1.30;;;4.70;99.90;;;;;;4948057;29;20055;-68
2022/01/20 01:44:09;;;;;;;12.15;1.42;;;4.80;99.90;;;;;;4953029;28;20039;-68
2022/01/20 01:46:37;;;;;;;11.93;1.60;;;4.80;99.90;;;;;;4950915;28;20419;-69
2022/01/20 01:49:03;;;;;;;12.88;1.92;;;4.80;99.90;;;;;;4945947;29;20078;-68
2022/01/20 01:51:29;;;;;;;12.73;2.33;;;4.80;99.90;;;;;;4944521;28;20035;-68
2022/01/20 01:53:55;;;;;;;7.03;1.00;;;4.80;99.90;;;;;;4943380;29;20043;-68
2022/01/20 01:56:20;;;;;;;8.00;1.57;;;4.80;99.90;;;;;;4949996;28;20551;-68
2022/01/20 01:58:47;;;;;;;9.37;1.50;;;4.80;99.90;;;;;;4951555;28;20303;-68
2022/01/20 02:01:13;;;;;;;10.73;1.50;;;4.90;99.90;;;;;;4944177;29;20481;-68
2022/01/20 02:03:46;;;;;;;9.97;1.10;;;4.90;99.90;;;;;;4937744;29;20063;-68
2022/01/20 02:06:50;;;;;;;6.90;1.45;;;4.90;99.90;;;;;;4941148;29;20299;-68
2022/01/20 02:17:53;;;;;;;11.02;1.30;;;4.90;99.90;;;;;;4925041;29;20044;-69
2022/01/20 02:20:19;;;;;;;6.30;0.98;;;4.80;99.90;;;;;;4906668;29;20040;-69
2022/01/20 02:22:44;;;;;;;9.83;1.97;;;4.80;99.90;;;;;;4942721;28;20054;-68
2022/01/20 02:25:28;;;;;;;8.63;0.80;;;4.80;99.90;;;;;;4947920;29;20054;-69
2022/01/20 02:27:57;;;;;;;7.85;0.98;;;4.80;99.90;;;;;;4962660;28;20039;-69
2022/01/20 02:30:25;;;;;;;8.98;1.20;;;4.70;99.90;;;;;;4937361;29;20524;-69
2022/01/20 02:32:53;;;;;;;8.25;1.00;;;4.70;99.90;;;;;;4951761;29;20079;-68
2022/01/20 02:35:19;;;;;;;5.57;1.02;;;4.60;99.90;;;;;;4942618;28;20039;-68
2022/01/20 02:37:52;;;;;;;11.07;1.98;;;4.50;99.90;;;;;;4968797;28;20098;-66
2022/01/20 02:45:56;;;;;;;12.05;1.23;;;4.40;99.90;;;;;;4950025;28;20122;-69
2022/01/20 02:48:22;;;;;;;10.07;1.60;;;4.30;99.90;;;;;;4950785;28;20039;-68
2022/01/20 02:50:48;;;;;;;9.57;3.40;;;4.40;99.90;;;;;;4977390;23;20508;-85
2022/01/20 02:55:41;;;;;;;14.55;1.95;;;4.40;99.90;;;;;;4955198;28;20050;-65
2022/01/20 02:58:08;;;;;;;17.80;3.17;;;4.40;99.90;;;;;;4946308;28;20069;-65
2022/01/20 03:00:34;;;;;;;18.40;2.20;;;4.40;99.90;;;;;;4964996;28;20351;-65
2022/01/20 03:03:01;;;;;;;16.35;1.95;;;4.30;99.90;;;;;;4959970;28;20038;-65
2022/01/20 03:05:27;;;;;;;;;;;4.40;99.90;;;;;;4963565;28;20042;-65
2022/01/20 03:07:53;;;;;;;25.67;3.50;;;4.50;99.90;;;;;;4962822;28;20264;-66
2022/01/20 03:10:18;;;;;;;27.10;3.22;;;4.50;99.90;;;;;;4947566;28;20117;-65
2022/01/20 03:12:44;;;;;;;17.88;3.30;;;4.50;99.90;;;;;;4945780;28;20113;-66
2022/01/20 03:15:10;;;;;;;18.33;2.63;;;4.60;99.90;;;;;;4945581;28;20062;-65
2022/01/20 03:17:35;;;;;;;18.73;3.20;;;4.60;99.90;;;;;;4945908;28;20085;-65
2022/01/20 03:20:01;;;;;;;18.33;4.03;;;4.60;99.90;;;;;;4938100;28;20062;-65
2022/01/20 03:22:27;;;;;;;21.13;3.20;;;4.50;99.90;;;;;;4950606;28;20046;-65
2022/01/20 03:24:54;;;;;;;18.50;2.57;;;4.50;99.90;;;;;;4962877;28;20047;-65
2022/01/20 03:27:19;;;;;;;17.27;3.53;;;4.50;99.90;;;;;;4958810;28;20407;-66
2022/01/20 03:29:48;;;;;;;19.73;2.77;;;4.50;99.90;;;;;;4947660;28;20134;-65
2022/01/20 03:32:13;;;;;;;16.98;2.20;;;4.50;99.90;;;;;;4956173;28;20035;-65
2022/01/20 03:34:39;;;;;;;15.37;2.53;;;4.50;99.90;;;;;;4962099;28;20066;-66
2022/01/20 03:37:05;;;;;;;17.37;2.50;;;4.40;99.90;;;;;;4938914;28;20047;-65
2022/01/20 03:39:33;;;;;;;14.20;3.03;;;4.40;99.90;;;;;;4961876;28;20400;-66
2022/01/20 03:41:59;;;;;;;19.08;3.22;;;4.40;99.90;;;;;;4941591;28;20053;-66
2022/01/20 03:44:24;;;;;;;16.13;2.57;;;4.30;99.90;;;;;;4941296;28;20043;-65
2022/01/20 03:46:50;;;;;;;15.90;2.27;;;4.40;99.90;;;;;;4944580;28;20089;-65
2022/01/20 03:49:29;;;;;;;17.40;2.83;;;4.40;99.90;;;;;;4955033;28;20043;-65
2022/01/20 03:51:55;;;;;;;20.08;2.83;;;4.40;99.90;;;;;;4964306;28;20101;-66
2022/01/20 03:54:21;;;;;;;15.67;2.60;;;4.40;99.90;;;;;;4954423;28;20503;-65
2022/01/20 03:56:46;;;;;;;11.97;2.83;;;4.40;99.90;;;;;;4962478;28;20054;-65
2022/01/20 03:59:12;;;;;;;10.90;2.40;;;4.40;99.90;;;;;;4949174;28;20432;-65
2022/01/20 04:01:37;;;;;;;11.07;3.03;;;4.40;99.90;;;;;;4961618;28;20039;-65
2022/01/20 04:04:03;;;;;;;8.30;1.87;;;4.30;99.90;;;;;;4960182;28;20058;-66
2022/01/20 04:06:29;;;;;;;12.57;2.03;;;4.30;99.90;;;;;;4963160;28;20122;-66
2022/01/20 04:08:55;;;;;;;20.08;2.10;;;4.30;99.90;;;;;;4940588;28;20287;-66
2022/01/20 04:11:26;;;;;;;11.57;1.60;;;4.30;99.90;;;;;;4945719;28;20716;-65
2022/01/20 04:13:53;;;;;;;10.32;1.92;;;4.30;99.90;;;;;;4949448;28;20045;-66
2022/01/20 04:16:30;;;;;;;12.27;2.30;;;4.30;99.90;;;;;;4956629;28;20055;-66
2022/01/20 04:19:00;;;;;;;7.10;1.98;;;4.30;99.90;;;;;;4954508;28;20047;-65
2022/01/20 04:21:28;;;;;;;12.23;1.42;;;4.30;99.90;;;;;;4964708;28;20045;-66
2022/01/20 04:23:54;;;;;;;14.48;1.85;;;4.30;99.90;;;;;;4941741;28;20047;-65
2022/01/20 04:26:21;;;;;;;9.00;2.45;;;4.20;99.90;;;;;;4959004;28;20042;-66
2022/01/20 04:28:48;;;;;;;11.52;1.63;;;4.20;99.90;;;;;;4966858;28;20074;-66
2022/01/20 04:31:14;;;;;;;8.02;2.03;;;4.10;99.90;;;;;;4943534;28;20051;-66
2022/01/20 04:33:40;;;;;;;20.40;2.42;;;4.10;99.90;;;;;;4960547;28;20050;-65
2022/01/20 04:36:07;;;;;;;17.47;2.37;;;4.00;99.90;;;;;;4944022;28;20050;-66
2022/01/20 04:38:33;;;;;;;10.88;1.60;;;4.00;99.90;;;;;;4950449;28;20181;-65
2022/01/20 04:40:58;;;;;;;16.93;1.83;;;4.00;99.90;;;;;;4960297;28;20122;-66
2022/01/20 04:43:25;;;;;;;14.13;2.03;;;3.90;99.90;;;;;;4953047;28;20042;-65
2022/01/20 04:46:00;;;;;;;10.18;1.45;;;3.70;99.90;;;;;;4954467;28;20564;-65
2022/01/20 04:48:42;;;;;;;8.45;2.60;;;3.70;99.90;;;;;;4963323;28;20118;-65
2022/01/20 04:59:21;;;;;;;11.90;2.45;;;3.40;99.90;;;;;;4940802;28;20047;-65
2022/01/20 05:01:47;;;;;;;9.90;1.70;;;3.40;99.90;;;;;;4960227;28;20122;-65
2022/01/20 05:04:13;;;;;;;11.82;1.52;;;3.40;99.90;;;;;;4964728;28;20427;-66
2022/01/20 05:06:41;;;;;;;14.10;3.07;;;3.30;99.90;;;;;;4962562;28;20034;-65
2022/01/20 05:09:07;;;;;;;8.50;2.55;;;3.30;99.90;;;;;;4960942;28;20074;-66
2022/01/20 05:11:36;;;;;;;9.52;1.67;;;3.30;99.90;;;;;;4969179;28;20510;-66
2022/01/20 05:14:02;;;;;;;9.80;1.83;;;3.30;99.90;;;;;;4944615;28;20047;-65
2022/01/20 05:16:27;;;;;;;14.10;1.45;;;3.20;99.90;;;;;;4937433;28;20114;-66
2022/01/20 05:18:53;;;;;;;12.80;2.50;;;3.30;99.90;;;;;;4940585;28;20122;-65
2022/01/20 05:21:18;;;;;;;13.97;1.97;;;3.30;99.90;;;;;;4944332;28;20110;-66
2022/01/20 05:23:44;;;;;;;6.50;1.30;;;3.30;99.90;;;;;;4940924;28;20538;-65
2022/01/20 05:26:10;;;;;;;14.60;2.80;;;3.30;99.90;;;;;;4946575;28;20039;-65
2022/01/20 05:28:35;;;;;;;16.43;3.03;;;3.30;99.90;;;;;;4943836;28;20047;-66
2022/01/20 05:31:01;;;;;;;15.47;1.93;;;3.30;99.90;;;;;;4942868;28;20046;-65
2022/01/20 05:33:27;;;;;;;17.60;3.00;;;3.30;99.90;;;;;;4958430;28;20423;-66
2022/01/20 05:35:53;;;;;;;13.88;2.80;;;3.30;99.90;;;;;;4940039;28;20078;-65
2022/01/20 05:38:19;;;;;;;14.27;2.83;;;3.30;99.90;;;;;;4963571;28;20034;-65
2022/01/20 05:40:45;;;;;;;19.10;2.63;;;3.40;99.90;;;;;;4948039;28;20625;-65
2022/01/20 05:43:11;;;;;;;15.48;2.17;;;3.40;99.90;;;;;;4947012;28;20106;-65
2022/01/20 05:45:37;;;;;;;10.60;2.08;;;3.40;99.90;;;;;;4944948;28;20035;-66
2022/01/20 05:48:13;;;;;;;15.70;2.70;;;3.40;99.90;;;;;;4948969;28;20043;-65
2022/01/20 05:50:38;;;;;;;15.80;2.50;;;3.50;99.90;;;;;;4943436;28;20043;-65
2022/01/20 05:53:06;;;;;;;26.67;2.63;;;3.40;99.90;;;;;;4962074;28;20480;-66
2022/01/20 05:55:32;;;;;;;14.02;1.42;;;3.40;99.90;;;;;;4946647;28;20047;-66
2022/01/20 05:57:57;;;;;;;8.55;1.73;;;3.40;99.90;;;;;;4947599;28;20101;-66
2022/01/20 06:00:24;;;;;;;14.63;1.97;;;3.40;99.90;;;;;;4965658;28;20035;-66
2022/01/20 06:05:39;;;;;;;14.73;3.03;;;3.40;99.90;;;;;;4963535;28;20038;-65
2022/01/20 06:08:06;;;;;;;10.20;1.88;;;3.40;99.90;;;;;;4966333;28;20074;-66
2022/01/20 06:10:31;;;;;;;15.90;2.33;;;3.40;99.90;;;;;;4941357;28;20047;-66
2022/01/20 06:12:58;;;;;;;19.37;2.47;;;3.30;99.90;;;;;;4965544;28;20130;-66
2022/01/20 06:15:23;;;;;;;;;;;3.30;99.90;;;;;;4964354;28;20066;-66
2022/01/20 06:17:49;;;;;;;9.45;1.67;;;3.20;99.90;;;;;;4966896;28;20263;-66
2022/01/20 06:20:15;;;;;;;11.17;2.33;;;3.20;99.90;;;;;;4964793;28;20042;-66
2022/01/20 06:22:41;;;;;;;8.47;1.70;;;3.20;99.90;;;;;;4927153;28;20077;-66
2022/01/20 06:25:09;;;;;;;12.60;1.70;;;3.20;99.90;;;;;;4961300;28;20035;-66
2022/01/20 06:27:35;;;;;;;15.77;2.47;;;3.20;99.90;;;;;;4963868;28;20180;-66
2022/01/20 06:30:01;;;;;;;8.48;2.25;;;3.20;99.90;;;;;;4949230;28;20043;-65
2022/01/20 06:32:27;;;;;;;9.70;1.77;;;3.20;99.90;;;;;;4947231;28;20048;-65
2022/01/20 06:34:52;;;;;;;15.77;2.27;;;3.30;99.90;;;;;;4961092;28;20317;-66
2022/01/20 06:37:18;;;;;;;10.53;1.77;;;3.20;99.90;;;;;;4962658;28;20035;-66
2022/01/20 06:39:44;;;;;;;7.27;1.73;;;3.30;99.90;;;;;;4963154;28;20049;-66
2022/01/20 06:42:09;;;;;;;12.47;2.17;;;3.30;99.90;;;;;;4957571;28;20563;-65
2022/01/20 06:44:35;;;;;;;11.47;2.10;;;3.20;99.90;;;;;;4951464;28;20496;-66
2022/01/20 06:47:01;;;;;;;6.70;2.13;;;3.30;99.90;;;;;;4955485;28;20509;-66
2022/01/20 06:49:26;;;;;;;11.63;1.93;;;3.20;99.90;;;;;;4963203;28;20046;-65
2022/01/20 06:51:52;;;;;;;7.00;1.60;;;3.30;99.90;;;;;;4966451;28;20039;-65
2022/01/20 06:54:18;;;;;;;12.20;1.50;;;3.30;99.90;;;;;;4963349;28;20596;-65
2022/01/20 06:56:43;;;;;;;9.30;1.30;;;3.20;99.90;;;;;;4960798;28;20448;-65
2022/01/20 06:59:14;;;;;;;7.83;1.60;;;3.20;99.90;;;;;;4962877;28;20127;-66
2022/01/20 07:01:41;;;;;;;15.70;2.45;;;3.30;99.90;;;;;;4942871;28;20073;-65
2022/01/20 07:04:10;;;;;;;11.68;2.35;;;3.30;99.90;;;;;;4944024;28;20039;-66
2022/01/20 07:06:37;;;;;;;18.83;2.03;;;3.40;99.90;;;;;;4965872;28;20078;-65
2022/01/20 07:09:03;;;;;;;13.75;1.77;;;3.40;99.90;;;;;;4961357;28;20043;-66
2022/01/20 07:11:31;;;;;;;8.13;1.83;;;3.40;99.90;;;;;;4942537;28;20384;-66
2022/01/20 07:13:57;;;;;;;10.27;1.27;;;3.40;99.90;;;;;;4962103;28;20630;-66
2022/01/20 07:16:22;;;;;;;5.37;1.23;;;3.30;99.90;;;;;;4955141;28;20308;-65
2022/01/20 07:18:50;;;;;;;5.63;1.47;;;3.30;99.90;;;;;;4946427;28;20126;-65
2022/01/20 07:21:16;;;;;;;7.45;1.45;;;3.30;99.90;;;;;;4964667;28;20074;-66
2022/01/20 07:23:42;;;;;;;11.23;2.30;;;3.30;99.90;;;;;;4963910;28;20073;-66
2022/01/20 07:26:07;;;;;;;16.50;2.03;;;3.30;99.90;;;;;;4943990;28;20803;-66
2022/01/20 07:28:33;;;;;;;10.10;1.40;;;3.30;99.90;;;;;;4948986;28;20054;-65
2022/01/20 07:30:59;;;;;;;5.57;0.90;;;3.20;99.90;;;;;;4959709;28;20035;-65
2022/01/20 07:33:24;;;;;;;17.53;2.10;;;3.20;99.90;;;;;;4942559;28;20065;-65
2022/01/20 07:35:50;;;;;;;11.30;1.40;;;3.20;99.90;;;;;;4962093;28;20038;-65
2022/01/20 07:38:16;;;;;;;11.07;1.77;;;3.20;99.90;;;;;;4945287;28;20067;-66
2022/01/20 07:40:41;;;;;;;12.77;2.63;;;3.20;99.90;;;;;;4943368;28;20431;-66
2022/01/20 07:43:07;;;;;;;8.93;1.97;;;3.20;99.90;;;;;;4934971;28;20038;-66
2022/01/20 07:45:33;;;;;;;12.67;2.00;;;3.20;99.90;;;;;;4958812;28;20397;-65
2022/01/20 07:47:59;;;;;;;13.88;1.92;;;3.30;99.90;;;;;;4945210;28;20130;-65
2022/01/20 07:50:25;;;;;;;10.85;2.70;;;3.30;99.90;;;;;;4943809;28;20039;-65
2022/01/20 07:52:50;;;;;;;18.60;2.60;;;3.30;99.90;;;;;;4935498;28;20085;-74
2022/01/20 07:55:16;;;;;;;16.83;2.30;;;3.40;99.90;;;;;;4947035;28;20064;-72
2022/01/20 07:57:42;;;;;;;19.98;2.25;;;3.40;99.90;;;;;;4941948;28;20145;-68
2022/01/20 08:00:09;;;;;;;15.30;1.77;;;3.40;99.90;;;;;;4948976;28;20031;-68
2022/01/20 08:02:34;;;;;;;;;;;3.30;99.90;;;;;;4947374;28;20034;-73
2022/01/20 08:05:00;;;;;;;16.75;2.55;;;3.30;99.90;;;;;;4946239;28;19924;-69
2022/01/20 08:07:26;;;;;;;13.20;2.43;;;3.40;99.90;;;;;;4939518;28;20047;-67
2022/01/20 08:09:57;;;;;;;13.63;3.40;;;3.40;99.90;;;;;;4955743;28;20035;-66
2022/01/20 08:12:27;;;;;;;12.90;2.90;;;3.40;99.90;;;;;;4942745;28;20437;-66
2022/01/20 08:14:54;;;;;;;11.90;2.10;;;3.50;99.90;;;;;;4939150;28;20046;-66
2022/01/20 08:17:20;;;;;;;20.98;2.22;;;3.50;99.90;;;;;;4944423;28;20406;-66
2022/01/20 08:19:46;;;;;;;15.97;2.20;;;3.50;99.90;;;;;;4929863;28;20041;-66
2022/01/20 08:22:11;;;;;;;17.00;2.85;;;3.50;99.90;;;;;;4939488;28;20038;-66
2022/01/20 08:24:37;;;;;;;16.40;2.80;;;3.50;99.90;;;;;;4942711;28;20403;-66
2022/01/20 08:27:03;;;;;;;17.77;3.03;;;3.40;99.90;;;;;;4959430;28;20039;-65
2022/01/20 08:29:29;;;;;;;21.38;2.58;;;3.40;99.90;;;;;;4960719;28;20953;-66
2022/01/20 08:31:54;;;;;;;16.53;4.30;;;3.40;99.90;;;;;;4932510;28;20628;-66
2022/01/20 08:34:20;;;;;;;9.83;1.43;;;3.40;99.90;;;;;;4941623;28;20031;-66
2022/01/20 08:36:46;;;;;;;17.23;2.53;;;3.40;99.90;;;;;;4963134;28;20102;-66
2022/01/20 08:42:00;;;;;;;11.13;1.63;;;3.40;99.90;;;;;;4941378;28;20214;-66
2022/01/20 08:44:26;;;;;;;16.05;3.03;;;3.40;99.90;;;;;;4942732;28;20075;-66
2022/01/20 08:46:53;;;;;;;14.70;2.55;;;3.40;99.90;;;;;;4955628;28;20412;-65
2022/01/20 08:49:22;;;;;;;;;;;3.40;99.90;;;;;;4957907;28;20042;-66
2022/01/20 08:51:47;;;;;;;13.00;2.08;;;3.40;99.90;;;;;;4971066;23;19952;-68
2022/01/20 08:54:14;;;;;;;10.50;3.00;;;3.50;99.90;;;;;;4972349;28;20042;-68
2022/01/20 08:56:41;;;;;;;12.75;2.17;;;3.50;99.90;;;;;;4967162;28;20060;-68
2022/01/20 08:59:09;;;;;;;9.05;1.83;;;3.50;99.90;;;;;;4970932;28;20581;-68
2022/01/20 09:01:36;;;;;;;11.68;1.52;;;3.50;99.90;;;;;;4976290;28;20042;-68
2022/01/20 09:04:02;;;;;;;16.73;2.13;;;3.60;99.90;;;;;;4965571;28;20403;-68
2022/01/20 09:06:28;;;;;;;11.35;1.88;;;3.70;99.90;;;;;;4968476;28;20081;-68
2022/01/20 09:08:54;;;;;;;17.75;2.25;;;3.80;99.90;;;;;;4973596;28;20042;-68
2022/01/20 09:11:30;;;;;;;10.47;2.30;;;3.90;99.90;;;;;;4968237;28;20510;-68
2022/01/20 09:16:41;;;;;;;14.70;1.45;;;4.00;99.90;;;;;;4979313;28;20051;-68
2022/01/20 09:19:08;;;;;;;10.95;2.17;;;4.00;99.90;;;;;;4975265;28;20258;-68
2022/01/20 09:21:34;;;;;;;;;;;4.10;99.90;;;;;;4974574;28;20050;-68
2022/01/20 09:23:59;;;;;;;16.38;3.13;;;4.10;99.90;;;;;;4975439;28;19933;-68
2022/01/20 09:26:25;;;;;;;10.93;1.60;;;4.20;99.90;;;;;;4971344;28;20062;-70
2022/01/20 09:28:51;;;;;;;10.23;1.50;;;4.20;99.90;;;;;;4981882;28;20533;-67
2022/01/20 09:31:22;;;;;;;7.20;1.67;;;4.30;99.90;;;;;;4976335;28;20438;-67
2022/01/20 09:33:47;;;;;;;12.65;1.75;;;4.30;99.90;;;;;;4977638;28;20103;-68
2022/01/20 09:36:13;;;;;;;11.57;1.70;;;4.40;98.10;;;;;;4961630;28;20061;-68
2022/01/20 09:38:39;;;;;;;9.65;2.20;;;4.40;96.40;;;;;;4969127;28;20085;-68
2022/01/20 09:41:06;;;;;;;9.03;2.00;;;4.40;96.00;;;;;;4970338;28;20482;-69
2022/01/20 09:43:33;;;;;;;8.65;2.08;;;4.50;95.30;;;;;;4971062;28;20507;-69
2022/01/20 09:45:59;;;;;;;12.55;2.05;;;4.50;95.30;;;;;;4972230;28;20470;-68
2022/01/20 09:48:27;;;;;;;9.70;1.52;;;4.60;95.00;;;;;;4969148;28;20045;-68
2022/01/20 09:50:53;;;;;;;11.98;3.33;;;4.60;94.30;;;;;;4973748;28;20042;-68
2022/01/20 09:53:19;;;;;;;9.75;1.83;;;4.70;93.90;;;;;;4977747;28;20039;-68
2022/01/20 09:55:46;;;;;;;13.15;2.67;;;4.80;94.60;;;;;;4974560;28;20042;-68
2022/01/20 09:58:12;;;;;;;9.27;1.40;;;4.90;93.80;;;;;;4972582;28;20046;-68
2022/01/20 10:00:39;;;;;;;;;;;4.90;93.50;;;;;;4973785;28;20097;-68
2022/01/20 10:03:10;;;;;;;7.75;1.77;;;4.80;92.90;;;;;;4976563;28;19922;-68
2022/01/20 10:05:38;;;;;;;10.27;2.05;;;4.80;94.50;;;;;;4973605;28;20133;-68
2022/01/20 10:08:21;;;;;;;18.30;2.15;;;4.70;94.60;;;;;;4974918;28;20038;-68
2022/01/20 10:10:56;;;;;;;9.13;1.20;;;4.80;96.20;;;;;;4977487;28;20490;-68
2022/01/20 10:13:30;;;;;;;20.23;2.55;;;4.90;96.10;;;;;;4976350;28;20483;-68
2022/01/20 10:16:11;;;;;;;12.35;2.15;;;5.00;93.80;;;;;;4972535;28;20038;-68
2022/01/20 10:18:57;;;;;;;8.65;2.03;;;5.00;93.50;;;;;;4976408;28;20157;-68
2022/01/20 10:21:37;;;;;;;8.80;1.33;;;4.90;94.10;;;;;;4978896;28;20492;-68
2022/01/20 10:24:08;;;;;;;9.65;1.70;;;4.60;97.40;;;;;;4973826;28;20546;-68
2022/01/20 10:26:35;;;;;;;5.10;1.25;;;4.30;98.20;;;;;;4981989;28;20050;-68
2022/01/20 10:29:05;;;;;;;7.13;1.80;;;4.20;99.60;;;;;;4976678;28;20038;-69
2022/01/20 10:31:38;;;;;;;6.90;2.25;;;4.10;99.90;;;;;;4978304;28;20375;-69
2022/01/20 10:34:06;;;;;;;7.38;1.85;;;4.10;99.90;;;;;;4972275;28;20795;-68
2022/01/20 10:36:38;;;;;;;8.40;2.08;;;4.20;99.90;;;;;;4976601;28;20042;-69
2022/01/20 10:39:04;;;;;;;13.15;2.67;;;4.30;99.90;;;;;;4978715;28;20527;-69
2022/01/20 10:41:32;;;;;;;14.10;3.03;;;4.30;99.90;;;;;;4974496;28;20308;-68
2022/01/20 10:44:10;;;;;;;20.00;1.75;;;4.30;99.90;;;;;;4973493;28;20042;-68
2022/01/20 10:46:51;;;;;;;7.45;1.58;;;4.40;99.90;;;;;;4974997;28;20042;-68
2022/01/20 10:49:18;;;;;;;8.43;1.42;;;4.50;99.90;;;;;;4972228;28;20547;-68
2022/01/20 10:51:55;;;;;;;11.82;1.80;;;4.60;99.90;;;;;;4972470;28;20051;-68
2022/01/20 10:54:21;;;;;;;9.60;1.83;;;4.70;99.90;;;;;;4971025;28;20042;-68
2022/01/20 10:56:51;;;;;;;5.87;0.93;;;4.50;99.90;;;;;;4973623;28;20444;-68
2022/01/20 10:59:17;;;;;;;5.10;0.90;;;4.20;99.90;;;;;;4965773;28;20108;-68
2022/01/20 11:01:43;;;;;;;4.90;0.50;;;3.90;99.90;;;;;;4970801;28;20101;-68
2022/01/20 11:04:10;;;;;;;3.27;0.60;;;3.80;99.90;;;;;;4972032;28;20132;-67
2022/01/20 11:06:36;;;;;;;10.90;1.02;;;3.60;99.90;;;;;;4972733;28;20050;-68
2022/01/20 11:09:06;;;;;;;6.13;0.93;;;3.60;99.90;;;;;;4973126;28;20053;-68
2022/01/20 11:11:33;;;;;;;4.38;0.75;;;3.50;99.90;;;;;;4971574;28;20075;-68
2022/01/20 11:13:59;;;;;;;10.15;1.33;;;3.70;99.90;;;;;;4969396;28;20049;-68
2022/01/20 11:16:26;;;;;;;6.47;2.22;;;3.80;99.90;;;;;;4977556;28;20061;-68
2022/01/20 11:18:51;;;;;;;7.82;1.40;;;3.90;99.90;;;;;;4973455;28;20117;-67
2022/01/20 11:21:26;;;;;;;8.20;1.30;;;4.10;99.90;;;;;;4984255;28;20190;-68
2022/01/20 11:23:52;;;;;;;10.32;1.58;;;4.20;99.90;;;;;;4971655;28;20112;-68
2022/01/20 11:26:18;;;;;;;18.57;1.60;;;4.40;99.90;;;;;;4979859;28;20355;-67
2022/01/20 11:28:58;;;;;;;8.40;1.60;;;4.50;99.90;;;;;;4980948;28;20042;-68
2022/01/20 11:31:33;;;;;;;8.93;1.85;;;4.70;99.90;;;;;;4968339;28;20034;-68
2022/01/20 11:33:59;;;;;;;14.10;2.33;;;4.80;99.90;;;;;;4973733;28;20522;-67
2022/01/20 11:36:29;;;;;;;11.23;1.90;;;4.80;99.90;;;;;;4972796;28;20034;-67
2022/01/20 11:39:04;;;;;;;10.07;2.55;;;4.70;99.90;;;;;;4975591;28;20061;-67
2022/01/20 11:41:40;;;;;;;9.07;2.20;;;4.60;99.90;;;;;;4973450;28;20567;-67
2022/01/20 11:44:24;;;;;;;9.52;2.22;;;4.50;99.90;;;;;;4970716;28;20027;-67
2022/01/20 11:46:53;;;;;;;12.93;2.65;;;4.60;99.90;;;;;;4973636;28;20081;-67
2022/01/20 11:49:21;;;;;;;11.40;3.10;;;4.60;99.90;;;;;;4968043;28;20042;-67
2022/01/20 11:51:47;;;;;;;15.10;2.75;;;4.70;99.90;;;;;;4968702;28;20043;-67
2022/01/20 11:54:16;;;;;;;9.07;1.70;;;4.90;99.90;;;;;;4974017;28;20057;-67
2022/01/20 11:56:44;;;;;;;12.00;1.67;;;5.00;99.90;;;;;;4979831;28;20065;-67
2022/01/20 11:59:15;;;;;;;13.82;2.10;;;5.10;99.90;;;;;;4974332;28;20055;-68
2022/01/20 12:01:51;;;;;;;12.80;2.35;;;5.30;99.90;;;;;;4975395;28;20158;-68
2022/01/20 12:04:17;;;;;;;15.85;1.63;;;5.30;99.90;;;;;;4966689;28;20049;-68
2022/01/20 12:06:47;;;;;;;9.60;1.40;;;5.40;99.90;;;;;;4970889;28;21285;-67
2022/01/20 12:09:15;;;;;;;9.40;1.60;;;5.50;99.80;;;;;;4969769;28;20121;-67
2022/01/20 12:11:46;;;;;;;11.45;1.50;;;5.50;99.40;;;;;;4972404;28;20039;-67
2022/01/20 12:14:13;;;;;;;7.53;1.63;;;5.50;98.80;;;;;;4970869;28;20407;-68
2022/01/20 12:16:43;;;;;;;13.23;1.73;;;5.50;97.50;;;;;;4971261;28;20182;-68
2022/01/20 12:19:10;;;;;;;12.30;1.98;;;5.60;94.10;;;;;;4974859;28;20042;-68
2022/01/20 12:21:38;;;;;;;9.13;1.52;;;5.70;90.80;;;;;;4968126;28;20137;-68
2022/01/20 12:24:04;;;;;;;11.45;1.90;;;5.60;90.10;;;;;;4969304;28;20046;-68
2022/01/20 12:26:36;;;;;;;10.23;2.40;;;5.60;90.60;;;;;;4967976;28;20060;-68
2022/01/20 12:29:09;;;;;;;15.15;1.83;;;5.60;90.80;;;;;;4973216;28;20110;-67
2022/01/20 12:31:51;;;;;;;11.70;1.65;;;5.60;90.70;;;;;;4971408;28;20400;-67
2022/01/20 12:34:19;;;;;;;17.05;2.00;;;5.60;90.80;;;;;;4967482;28;20049;-67
2022/01/20 12:36:56;;;;;;;13.15;1.70;;;5.40;92.70;;;;;;4968541;28;20038;-67
2022/01/20 12:39:25;;;;;;;8.52;1.73;;;5.20;94.40;;;;;;4964960;28;20463;-67
2022/01/20 12:42:00;;;;;;;13.85;2.50;;;5.20;96.00;;;;;;4969342;28;20379;-69
2022/01/20 12:45:01;;;;;;;10.90;1.92;;;5.30;97.20;;;;;;4976002;28;20130;-67
2022/01/20 12:47:28;;;;;;;10.07;1.35;;;5.30;97.30;;;;;;4978047;28;20503;-67
2022/01/20 12:49:59;;;;;;;9.73;2.40;;;5.50;96.50;;;;;;4974460;28;20514;-68
2022/01/20 12:52:25;;;;;;;14.02;1.77;;;5.50;96.10;;;;;;4975080;28;20171;-67
2022/01/20 12:54:51;;;;;;;15.20;1.80;;;5.60;94.50;;;;;;4974014;28;20531;-67
2022/01/20 12:57:18;;;;;;;14.95;2.15;;;5.70;95.10;;;;;;4972522;28;20118;-67
2022/01/20 12:59:45;;;;;;;16.77;2.28;;;5.70;93.90;;;;;;4975149;28;20373;-66
2022/01/20 13:02:23;;;;;;;10.63;2.85;;;5.70;92.80;;;;;;4970333;28;20031;-67
2022/01/20 13:04:54;;;;;;;15.13;1.92;;;5.70;92.00;;;;;;4977398;28;20045;-67
2022/01/20 13:07:20;;;;;;;15.75;2.30;;;5.70;92.60;;;;;;4983380;28;20522;-67
2022/01/20 13:09:52;;;;;;;8.63;2.23;;;5.70;92.10;;;;;;4978358;28;20034;-67
2022/01/20 13:12:29;;;;;;;12.93;2.00;;;5.70;89.50;;;;;;4983842;28;20483;-69
2022/01/20 13:14:55;;;;;;;10.23;1.90;;;5.70;87.00;;;;;;4973396;28;20129;-67
2022/01/20 13:17:30;;;;;;;9.73;1.47;;;5.70;86.60;;;;;;4972043;28;20128;-68
2022/01/20 13:19:58;;;;;;;8.55;1.45;;;5.80;86.40;;;;;;4974114;28;20042;-66
2022/01/20 13:23:54;;;;;;;9.45;1.63;;;5.90;85.70;;;;;;4982176;28;20167;-68
2022/01/20 13:25:21;;;;;;;8.48;1.75;;;5.90;86.60;;;;;;4969883;28;20117;-71
2022/01/20 13:27:55;;;;;;;14.90;1.73;;;5.90;86.20;;;;;;4980388;28;20046;-70
2022/01/20 13:30:28;;;;;;;9.07;1.52;;;5.80;87.00;;;;;;4973216;28;20114;-69
2022/01/20 13:32:55;;;;;;;8.68;0.80;;;5.70;87.10;;;;;;4981578;28;20606;-69
2022/01/20 13:35:21;;;;;;;4.10;0.70;;;5.40;87.40;;;;;;4973320;28;20041;-69
2022/01/20 13:37:57;;;;;;;4.13;0.90;;;5.20;87.40;;;;;;4972347;28;20149;-69
2022/01/20 13:40:23;;;;;;;3.83;0.70;;;5.00;87.90;;;;;;4990782;28;20495;-71
2022/01/20 13:45:45;;;;;;;5.85;0.80;;;4.70;90.10;;;;;;4972834;28;20054;-67
2022/01/20 13:48:26;;;;;;;6.43;0.88;;;4.50;90.80;;;;;;4975925;28;20495;-68
2022/01/20 13:50:56;;;;;;;4.07;1.05;;;4.50;91.30;;;;;;4968844;28;20053;-68
2022/01/20 13:53:26;;;;;;;4.53;1.27;;;4.50;92.40;;;;;;4971532;28;20125;-68
2022/01/20 13:55:52;;;;;;;7.25;1.52;;;4.50;94.20;;;;;;4974509;28;20073;-68
2022/01/20 13:58:26;;;;;;;4.53;1.25;;;4.70;95.10;;;;;;4974332;28;20056;-69